Flight Track Log - Related Links

Times and Time Zones

All times are in EDT time to prevent confusion due to time zone crossing. See the ASH3751 flight status page for this flight to view local times or setup timezone preferences in your user account.


Time Position Orientation Groundspeed Altitude Reporting Facility
EDT Latitude Longitude Course Direction KTS MPH feet Rate Location/Type
Sun 12:46:27 PM 29.5200 -98.4569 90° East 158 182 1,500  Level Houston Center
Sun 12:47:34 PM 29.4886 -98.3989 122° Southeast 200 230 3,600 1,860 Climbing Houston Center
Sun 12:48:36 PM 29.5092 -98.3258 72° East 248 285 5,500 2,112 Climbing Houston Center
Sun 12:49:00 PM 29.6256 -98.0501 75° East  Level FlightAware Approximate
Sun 12:49:39 PM 29.5319 -98.2386 73° East 265 305 8,000  Level Houston Center
Sun 12:50:00 PM 29.6500 -97.9258 90° East  Level FlightAware Approximate
Sun 12:50:41 PM 29.5564 -98.1544 72° East 279 321 10,100  Level Houston Center
Sun 12:51:00 PM 29.6500 -97.7811 90° East  Level FlightAware Approximate
Sun 12:51:43 PM 29.5847 -98.0589 71° East 293 337 12,000  Level Houston Center
Sun 12:52:45 PM 29.6139 -97.9583 72° East 337 388 13,000 1,210 Climbing Houston Center
Sun 12:53:47 PM 29.6472 -97.8400 72° East 361 415 14,500 1,355 Climbing Houston Center
Sun 12:54:49 PM 29.6542 -97.7217 86° East 382 440 15,800 1,452 Climbing Houston Center
Sun 12:55:51 PM 29.6558 -97.5994 89° East 384 442 17,500 1,500 Climbing Houston Center
Sun 12:56:53 PM 29.6569 -97.4794 89° East 378 435 18,900 1,290 Climbing Houston Center
Sun 12:58:00 PM 29.6500 -97.3261 90° East  Level FlightAware Approximate
Sun 12:58:57 PM 29.6581 -97.2344 90° East 384 442 21,500  Level Houston Center
Sun 01:00:00 PM 29.6597 -97.0803 89° East 398 458 22,700 1,104 Climbing Houston Center
Sun 01:01:02 PM 29.6489 -96.9489 95° East 415 478 23,800 1,016 Climbing Houston Center
Sun 01:02:04 PM 29.6267 -96.8181 101° East 415 478 24,800 968 Climbing Houston Center
Sun 01:03:06 PM 29.6042 -96.6842 101° East 421 484 25,800 968 Climbing Houston Center
Sun 01:04:08 PM 29.5889 -96.5492 97° East 423 487 26,800 968 Climbing Houston Center
Sun 01:05:10 PM 29.5736 -96.4131 97° East 427 491 27,800 968 Climbing Houston Center
Sun 01:06:12 PM 29.5581 -96.2769 97° East 429 494 28,800 968 Climbing Houston Center
Sun 01:07:14 PM 29.5606 -96.1419 89° East 435 501 29,800 871 Climbing Houston Center
Sun 01:08:16 PM 29.6308 -95.9983 61° Northeast 437 503 30,600 677 Climbing Houston Center
Sun 01:09:18 PM 29.6842 -95.8908 60° Northeast 439 505 31,200 629 Climbing Houston Center
Sun 01:10:20 PM 29.7594 -95.7419 60° Northeast 447 514 31,900 624 Climbing Houston Center
Sun 01:11:23 PM 29.8233 -95.6164 60° Northeast 452 520 32,500 576 Climbing Houston Center
Sun 01:12:25 PM 29.8878 -95.4886 60° Northeast 458 527 33,100 581 Climbing Houston Center
Sun 01:13:27 PM 29.9578 -95.3633 57° Northeast 467 537 33,700 581 Climbing Houston Center
Sun 01:14:29 PM 30.0592 -95.2717 38° Northeast 467 537 34,300 581 Climbing Houston Center
Sun 01:15:31 PM 30.1636 -95.1911 34° Northeast 451 519 34,900 339 Climbing Houston Center
Sun 01:16:33 PM 30.2722 -95.1100 33° Northeast 466 536 35,000 48 Climbing Houston Center
Sun 01:17:35 PM 30.3806 -95.0283 33° Northeast 468 539 35,000  Level Houston Center
Sun 01:18:37 PM 30.5008 -94.9331 34° Northeast 475 547 35,000  Level Houston Center
Sun 01:19:39 PM 30.6117 -94.8472 34° Northeast 472 543 35,000  Level Houston Center
Sun 01:20:41 PM 30.7450 -94.7447 33° Northeast 477 549 35,000  Level Houston Center
Sun 01:21:43 PM 30.8544 -94.6586 34° Northeast 488 562 35,000  Level Houston Center
Sun 01:22:45 PM 30.9647 -94.5733 34° Northeast 484 557 35,000  Level Houston Center
Sun 01:23:47 PM 31.0758 -94.4883 33° Northeast 481 554 35,000  Level Houston Center
Sun 01:24:50 PM 31.2078 -94.3853 34° Northeast 482 555 35,000  Level Houston Center
Sun 01:25:52 PM 31.3181 -94.3008 33° Northeast 480 552 35,000  Level Houston Center
Sun 01:26:54 PM 31.4275 -94.2167 33° Northeast 475 547 35,000  Level Houston Center
Sun 01:27:56 PM 31.5358 -94.1317 34° Northeast 471 542 35,000  Level Houston Center
Sun 01:28:58 PM 31.6436 -94.0461 34° Northeast 469 540 35,000  Level Houston Center
Sun 01:30:00 PM 31.7511 -93.9614 34° Northeast 467 537 35,000  Level Houston Center
Sun 01:31:02 PM 31.8719 -93.8653 34° Northeast 467 537 35,000  Level Houston Center
Sun 01:32:04 PM 31.9797 -93.7797 34° Northeast 466 536 35,000  Level Houston Center
Sun 01:33:06 PM 32.0950 -93.6886 34° Northeast 466 536 35,000  Level Houston Center
Sun 01:34:08 PM 32.2008 -93.6033 34° Northeast 462 532 35,000  Level Houston Center
Sun 01:35:10 PM 32.3233 -93.5058 34° Northeast 466 536 35,000  Level Houston Center
Sun 01:36:30 PM 32.4622 -93.3878 36° Northeast 460 529 35,000  Level Fort Worth Center
Sun 01:37:30 PM 32.5700 -93.3017 34° Northeast 460 529 35,000  Level Fort Worth Center
Sun 01:38:30 PM 32.6778 -93.2153 34° Northeast 460 529 35,000  Level Fort Worth Center
Sun 01:39:30 PM 32.7856 -93.1289 34° Northeast 460 529 35,000  Level Fort Worth Center
Sun 01:40:30 PM 32.8908 -93.0397 35° Northeast 460 529 35,000  Level Fort Worth Center
Sun 01:41:30 PM 32.9986 -92.9550 33° Northeast 465 535 35,000  Level Fort Worth Center
Sun 01:42:30 PM 33.1039 -92.8681 35° Northeast 465 535 35,000  Level Fort Worth Center
Sun 01:43:30 PM 33.2114 -92.7831 33° Northeast 465 535 35,000  Level Fort Worth Center
Sun 01:45:55 PM 33.4197 -92.5025 48° Northeast 467 537 35,000  Level Memphis Center
Sun 01:46:55 PM 33.4969 -92.3800 53° Northeast 467 537 35,000  Level Memphis Center
Sun 01:47:55 PM 33.5739 -92.2594 53° Northeast 462 532 35,000  Level Memphis Center
Sun 01:48:55 PM 33.6572 -92.1367 51° Northeast 462 532 35,000  Level Memphis Center
Sun 01:49:55 PM 33.7381 -92.0158 51° Northeast 462 532 35,000  Level Memphis Center
Sun 01:50:55 PM 33.8128 -91.8922 54° Northeast 457 526 35,000  Level Memphis Center
Sun 01:51:55 PM 33.9019 -91.7711 48° Northeast 457 526 35,000  Level Memphis Center
Sun 01:52:55 PM 33.9742 -91.6447 55° Northeast 457 526 35,000  Level Memphis Center
Sun 01:53:55 PM 34.0525 -91.5231 52° Northeast 457 526 35,000  Level Memphis Center
Sun 01:54:55 PM 34.1308 -91.3986 53° Northeast 463 533 35,000  Level Memphis Center
Sun 01:55:55 PM 34.2089 -91.2789 52° Northeast 463 533 35,000  Level Memphis Center
Sun 01:56:55 PM 34.2808 -91.1667 52° Northeast 463 533 35,000  Level Memphis Center
Sun 01:57:55 PM 34.3586 -91.0414 53° Northeast 463 533 35,000  Level Memphis Center
Sun 01:58:55 PM 34.4364 -90.9186 52° Northeast 463 533 35,000  Level Memphis Center
Sun 01:59:55 PM 34.5142 -90.7958 52° Northeast 456 525 35,000  Level Memphis Center
Sun 02:00:55 PM 34.5897 -90.6725 53° Northeast 456 525 35,000  Level Memphis Center
Sun 02:01:55 PM 34.6650 -90.5542 52° Northeast 456 525 35,000  Level Memphis Center
Sun 02:02:55 PM 34.7467 -90.4228 53° Northeast 456 525 35,000  Level Memphis Center
Sun 02:03:55 PM 34.8236 -90.3039 52° Northeast 451 519 35,000  Level Memphis Center
Sun 02:04:55 PM 34.8967 -90.1850 53° Northeast 442 509 35,000  Level Memphis Center
Sun 02:05:55 PM 34.9694 -90.0656 53° Northeast 442 509 35,000  Level Memphis Center
Sun 02:06:55 PM 35.0378 -89.9361 57° Northeast 447 514 35,000  Level Memphis Center
Sun 02:07:55 PM 35.0853 -89.8039 66° East 452 520 35,000  Level Memphis Center
Sun 02:08:55 PM 35.1347 -89.6614 67° East 459 528 35,000  Level Memphis Center
Sun 02:09:55 PM 35.1839 -89.5161 67° East 459 528 35,000  Level Memphis Center
Sun 02:10:55 PM 35.2350 -89.3708 67° East 459 528 35,000  Level Memphis Center
Sun 02:11:55 PM 35.2900 -89.2150 67° East 459 528 35,000  Level Memphis Center
Sun 02:12:55 PM 35.3406 -89.0692 67° East 460 529 35,000  Level Memphis Center
Sun 02:13:55 PM 35.3933 -88.9206 66° East 454 522 35,000  Level Memphis Center
Sun 02:14:55 PM 35.4333 -88.7925 69° East 454 522 35,000  Level Memphis Center
Sun 02:15:55 PM 35.4856 -88.6436 67° East 454 522 35,000  Level Memphis Center
Sun 02:16:55 PM 35.5356 -88.4944 68° East 459 528 35,000  Level Memphis Center
Sun 02:17:55 PM 35.5875 -88.3478 66° East 459 528 35,000  Level Memphis Center
Sun 02:18:55 PM 35.6394 -88.2011 66° East 459 528 35,000  Level Memphis Center
Sun 02:19:55 PM 35.6869 -88.0617 67° East 452 520 35,000  Level Memphis Center
Sun 02:20:55 PM 35.7361 -87.9147 68° East 452 520 35,000  Level Memphis Center
Sun 02:21:55 PM 35.7853 -87.7647 68° East 462 532 35,000  Level Memphis Center
Sun 02:22:55 PM 35.8342 -87.6172 68° East 462 532 35,000  Level Memphis Center
Sun 02:23:55 PM 35.8831 -87.4697 68° East 455 524 35,000  Level Memphis Center
Sun 02:24:55 PM 35.9294 -87.3219 69° East 460 529 35,000  Level Memphis Center
Sun 02:25:55 PM 35.9819 -87.1633 68° East 452 520 35,000  Level Memphis Center
Sun 02:26:55 PM 36.0281 -87.0128 69° East 457 526 35,000  Level Memphis Center
Sun 02:27:55 PM 36.0758 -86.8619 69° East 457 526 35,000  Level Memphis Center
Sun 02:28:55 PM 36.1258 -86.7133 67° East 457 526 35,000  Level Memphis Center
Sun 02:29:55 PM 36.1883 -86.5717 61° Northeast 457 526 35,000  Level Memphis Center
Sun 02:30:55 PM 36.2550 -86.4347 59° Northeast 462 532 35,000  Level Memphis Center
Sun 02:31:55 PM 36.3236 -86.2975 58° Northeast 470 541 35,000  Level Memphis Center
Sun 02:32:55 PM 36.3897 -86.1600 59° Northeast 465 535 35,000  Level Memphis Center
Sun 02:33:55 PM 36.4539 -86.0200 60° Northeast 460 529 35,000  Level Memphis Center
Sun 02:34:55 PM 36.5197 -85.8847 59° Northeast 460 529 35,000  Level Memphis Center
Sun 02:36:25 PM 36.6081 -85.6983 59° Northeast 461 531 35,000  Level Indianapolis Center
Sun 02:37:27 PM 36.6747 -85.5572 59° Northeast 468 539 35,000  Level Indianapolis Center
Sun 02:38:28 PM 36.7536 -85.3908 59° Northeast 464 534 35,000  Level Indianapolis Center
Sun 02:39:30 PM 36.8192 -85.2497 60° Northeast 468 539 35,000  Level Indianapolis Center
Sun 02:40:32 PM 36.8847 -85.1078 60° Northeast 470 541 35,000  Level Indianapolis Center
Sun 02:41:34 PM 36.9794 -85.0019 42° Northeast 461 531 35,000  Level Indianapolis Center
Sun 02:42:36 PM 37.1089 -84.9419 20° North 455 524 35,000  Level Indianapolis Center
Sun 02:43:38 PM 37.2250 -84.8792 23° Northeast 455 524 35,000  Level Indianapolis Center
Sun 02:44:40 PM 37.3161 -84.7608 46° Northeast 469 540 35,000  Level Indianapolis Center
Sun 02:45:42 PM 37.3725 -84.6089 65° Northeast 478 550 35,000  Level Indianapolis Center
Sun 02:46:44 PM 37.4278 -84.4544 66° East 480 552 35,000  Level Indianapolis Center
Sun 02:47:46 PM 37.4831 -84.3019 65° Northeast 480 552 35,000  Level Indianapolis Center
Sun 02:48:48 PM 37.5478 -84.1211 66° East 484 557 35,000  Level Indianapolis Center
Sun 02:49:49 PM 37.6022 -83.9675 66° East 476 548 35,000  Level Indianapolis Center
Sun 02:50:51 PM 37.6583 -83.8128 65° Northeast 482 555 35,000  Level Indianapolis Center
Sun 02:51:53 PM 37.7275 -83.6714 58° Northeast 481 554 35,000  Level Indianapolis Center
Sun 02:52:55 PM 37.8222 -83.5508 45° Northeast 485 558 35,000  Level Indianapolis Center
Sun 02:53:57 PM 37.9161 -83.4317 45° Northeast 477 549 35,000  Level Indianapolis Center
Sun 02:54:59 PM 38.0094 -83.3111 45° Northeast 476 548 35,000  Level Indianapolis Center
Sun 02:56:01 PM 38.1172 -83.1797 44° Northeast 458 527 35,000  Level Indianapolis Center
Sun 02:57:03 PM 38.2097 -83.0642 44° Northeast 460 529 35,000  Level Indianapolis Center
Sun 02:58:05 PM 38.3019 -82.9497 44° Northeast 460 529 35,000  Level Indianapolis Center
Sun 02:59:07 PM 38.3597 -82.8039 63° Northeast 463 533 35,000  Level Indianapolis Center
Sun 03:00:09 PM 38.3664 -82.6475 87° East 441 507 35,000 -677 Level Indianapolis Center
Sun 03:01:11 PM 38.3639 -82.4872 91° East 448 516 33,600 -968 Descending Indianapolis Center
Sun 03:02:13 PM 38.3608 -82.3322 91° East 442 509 33,000 -290 Descending Indianapolis Center
Sun 03:03:15 PM 38.3575 -82.1419 91° East 447 514 33,000  Level Indianapolis Center
Sun 03:04:17 PM 38.3553 -81.9833 91° East 449 517 33,000  Level Indianapolis Center
Sun 03:05:19 PM 38.3519 -81.8242 91° East 453 521 33,000  Level Indianapolis Center
Sun 03:06:21 PM 38.3467 -81.6603 92° East 464 534 33,000  Level Indianapolis Center
Sun 03:07:23 PM 38.3408 -81.4950 93° East 470 541 33,000  Level Indianapolis Center
Sun 03:08:25 PM 38.3347 -81.2956 92° East 474 545 33,000  Level Indianapolis Center
Sun 03:09:27 PM 38.3292 -81.1286 92° East 475 547 33,000  Level Indianapolis Center
Sun 03:10:29 PM 38.3222 -80.9608 93° East 477 549 33,000  Level Indianapolis Center
Sun 03:11:31 PM 38.3161 -80.7919 93° East 481 554 33,000  Level Indianapolis Center
Sun 03:12:33 PM 38.3111 -80.6189 92° East 489 563 33,000  Level Indianapolis Center
Sun 03:13:27 PM 38.3167 -80.4533 87° East 482 555 33,000 -574 Level Washington Center
Sun 03:14:28 PM 38.3506 -80.2861 75° East 482 555 31,900 -1,289 Descending Washington Center
Sun 03:15:28 PM 38.3856 -80.1344 74° East 482 555 30,400 -1,627 Descending Washington Center
Sun 03:16:26 PM 38.4186 -79.9722 75° East 482 555 28,700 -1,765 Descending Washington Center
Sun 03:17:27 PM 38.4517 -79.8072 76° East 482 555 26,900 -1,736 Descending Washington Center
Sun 03:18:27 PM 38.4822 -79.6472 76° East 475 547 25,200 -1,438 Descending Washington Center
Sun 03:19:28 PM 38.5192 -79.4794 74° East 452 520 24,000 -605 Descending Washington Center
Sun 03:20:26 PM 38.5425 -79.3344 78° East 431 496 24,000 -203 Level Washington Center
Sun 03:21:26 PM 38.5653 -79.2003 78° East 426 490 23,600 -1,388 Descending Washington Center
Sun 03:22:27 PM 38.5883 -79.0525 79° East 426 490 21,200 -2,380 Descending Washington Center
Sun 03:23:27 PM 38.6111 -78.9128 78° East 421 484 18,800 -2,132 Descending Washington Center
Sun 03:24:28 PM 38.6353 -78.7864 76° East 394 453 16,900 -1,983 Descending Washington Center
Sun 03:25:25 PM 38.6658 -78.6575 73° East 374 430 14,900 -2,085 Descending Washington Center
Sun 03:26:26 PM 38.6939 -78.5361 73° East 362 417 12,800 -1,934 Descending Washington Center
Sun 03:27:26 PM 38.7217 -78.4175 73° East 350 403 11,000 -1,388 Descending Washington Center
Sun 03:28:27 PM 38.7675 -78.3289 56° Northeast 328 377 10,000 -1,091 Descending Washington Center
Sun 03:29:27 PM 38.8333 -78.2753 32° Northeast 280 322 8,800 -1,240 Descending Washington Center
Sun 03:30:28 PM 38.9111 -78.2542 12° North 275 316 7,500 -1,210 Descending Washington Center
Sun 03:31:26 PM 38.9644 -78.1919 42° Northeast 269 310 6,400 -756 Descending Washington Center
Sun 03:32:27 PM 38.9731 -78.0881 84° East 233 268 6,000 -197 Descending Washington Center
Sun 03:33:28 PM 38.9686 -77.9892 93° East 255 293 6,000  Level Washington Center
Sun 03:34:26 PM 38.9664 -77.8903 92° East 260 299 6,000  Level Washington Center
Sun 03:36:22 PM 38.9667 -77.7000 90° East 273 314 6,000  Level Potomac TRACON
Sun 03:37:16 PM 38.9667 -77.6167 90° East 253 291 6,000  Level Potomac TRACON
Sun 03:38:22 PM 39.0333 -77.5667 30° Northeast 251 289 6,000  Level Potomac TRACON
Sun 03:39:23 PM 39.1000 -77.5667 360° North 235 270 6,000  Level Potomac TRACON
Sun 03:40:23 PM 39.1500 -77.5667 360° North 200 230 6,000  Level Potomac TRACON
Sun 03:41:23 PM 39.2167 -77.5667 360° North 199 229 6,000 -417 Level Potomac TRACON
Sun 03:42:18 PM 39.2333 -77.5333 57° Northeast 223 257 5,200 -992 Descending Potomac TRACON
Sun 03:43:24 PM 39.2000 -77.4667 123° Southeast 216 249 4,000 -857 Descending Potomac TRACON
Sun 03:44:24 PM 39.1500 -77.4500 166° South 196 226 3,400 -600 Descending Potomac TRACON
Sun 03:45:24 PM 39.1000 -77.4500 180° South 181 208 2,800 -600 Descending Potomac TRACON

Login

Don't have an account? Register now (free) for customized features, flight alerts, and more!